Main page
METAR-TAF:

METAR-TAF

Airports :

McNary Field

Salem, Oregon, United States

latitude: 44-54-28N, longitude: 122-59-42W, elevation: 210 ft

Current weather observation

The report was made 43 minutes ago, at 13:56 UTC
Calm wind
Temperature 36°F
Humidity 100%
Pressure 30.31 in. Hg
Visibility: 3 miles
Clear sky
mist

METAR: KSLE 231356Z AUTO 00000KT 3SM BR CLR 02/02 A3031 RMK AO2 SLP263 T00220017

Time: 06:39 (14:39 UTC)

Forecast

The report was made 3 hours and 19 minutes ago, at 11:20 UTC
Forecast valid from 23 at 12 UTC to 24 at 12 UTC
Wind 6 mph from variable directions
Visibility: 6 miles
Few clouds at a height of 22000 ft

TAF: KSLE 231120Z 2312/2412 VRB05KT P6SM FEW220

Weather observations and forecasts of more than 4000 airports (METAR and TAF reports).

The available stations are represented by yellow and red dots on the map.

Hover mouse over dot to see the name of the station.

Then click to see weather observations and forecasts.

To change the map : click on the green buttons with a black cross to zoom in, on the green button with a dash to zoom out, or on the green arrows for adjacent maps.


METAR-TAF: